createdAt,value
2023-01-29T00:01:01.261Z,18.3
2023-01-29T00:06:01.254Z,18.8
2023-01-29T00:11:01.176Z,18.5
2023-01-29T00:16:01.179Z,16.0
2023-01-29T00:21:01.302Z,15.5
2023-01-29T00:26:01.317Z,14.7
2023-01-29T00:31:01.344Z,12.7
2023-01-29T00:36:01.878Z,13.2
2023-01-29T00:41:06.621Z,14.6
2023-01-29T00:51:01.307Z,15.5
2023-01-29T00:56:02.634Z,17.4
2023-01-29T01:01:01.354Z,17.7
2023-01-29T01:06:01.278Z,18.7
2023-01-29T01:11:01.169Z,19.9
2023-01-29T01:16:01.365Z,20.7
2023-01-29T01:21:01.275Z,23.7
2023-01-29T01:26:01.164Z,24.2
2023-01-29T01:31:01.245Z,23.6
2023-01-29T01:36:01.227Z,24.8
2023-01-29T01:41:01.255Z,26.3
2023-01-29T01:46:01.315Z,26.0
2023-01-29T01:56:01.709Z,29.2
2023-01-29T02:01:01.284Z,29.4
2023-01-29T02:06:01.150Z,28.5
2023-01-29T02:11:01.205Z,27.9
2023-01-29T02:16:01.157Z,27.6
2023-01-29T02:21:01.261Z,27.4
2023-01-29T02:26:01.154Z,26.7
2023-01-29T02:31:01.210Z,26.8
2023-01-29T02:36:16.584Z,26.0
2023-01-29T02:41:01.150Z,26.0
2023-01-29T02:46:01.242Z,26.4
2023-01-29T02:51:01.165Z,26.2
2023-01-29T02:56:02.371Z,25.8
2023-01-29T03:01:01.256Z,25.7
2023-01-29T03:06:01.183Z,24.8
2023-01-29T03:11:01.167Z,22.9
2023-01-29T03:16:01.394Z,23.5
2023-01-29T03:21:05.689Z,22.1
2023-01-29T03:26:01.169Z,22.4
2023-01-29T03:31:01.346Z,22.8
2023-01-29T03:36:01.277Z,22.9
2023-01-29T03:41:01.156Z,20.9
2023-01-29T03:46:01.205Z,22.2
2023-01-29T03:51:01.181Z,21.4
2023-01-29T03:56:01.158Z,20.8
2023-01-29T04:01:01.188Z,21.6
2023-01-29T04:06:01.178Z,22.4
2023-01-29T04:11:01.165Z,22.6
2023-01-29T04:16:01.178Z,23.4
2023-01-29T04:21:01.180Z,21.8
2023-01-29T04:26:01.191Z,22.1
2023-01-29T04:31:01.527Z,22.2
2023-01-29T04:36:01.183Z,22.2
2023-01-29T04:41:01.141Z,23.2
2023-01-29T04:46:01.234Z,26.0
2023-01-29T04:51:01.203Z,26.8
2023-01-29T04:57:01.885Z,27.6
2023-01-29T05:02:01.346Z,29.2
2023-01-29T05:07:01.260Z,29.3
2023-01-29T05:12:01.229Z,28.5
2023-01-29T05:17:01.168Z,27.3
2023-01-29T05:22:01.162Z,27.2
2023-01-29T05:27:01.178Z,25.4
2023-01-29T05:32:01.204Z,23.3
2023-01-29T05:37:01.202Z,23.3
2023-01-29T05:42:01.175Z,23.9
2023-01-29T05:47:01.173Z,22.4
2023-01-29T05:52:01.245Z,22.6
2023-01-29T05:57:01.708Z,24.0
2023-01-29T06:02:01.257Z,24.4
2023-01-29T06:07:01.277Z,26.5
2023-01-29T06:12:01.166Z,28.2
2023-01-29T06:17:01.193Z,29.6
2023-01-29T06:27:01.155Z,29.0
2023-01-29T06:32:01.413Z,24.4
2023-01-29T06:37:01.834Z,24.1
2023-01-29T06:42:01.251Z,23.0
2023-01-29T06:47:01.569Z,24.2
2023-01-29T06:52:01.396Z,24.0
2023-01-29T06:57:01.176Z,27.5
2023-01-29T07:02:01.419Z,26.1
2023-01-29T07:07:01.323Z,26.3
2023-01-29T07:12:01.180Z,25.3
2023-01-29T07:17:01.166Z,25.2
2023-01-29T07:22:01.176Z,22.1
2023-01-29T07:27:01.158Z,23.6
2023-01-29T07:32:01.481Z,23.9
2023-01-29T07:37:01.196Z,24.8
2023-01-29T07:42:01.175Z,25.7
2023-01-29T07:47:01.169Z,28.6
2023-01-29T07:52:01.215Z,28.2
2023-01-29T07:57:01.165Z,28.6
2023-01-29T08:02:01.958Z,28.5
2023-01-29T08:07:01.710Z,28.6
2023-01-29T08:12:01.566Z,29.0
2023-01-29T08:17:01.597Z,30.3
2023-01-29T08:22:01.316Z,30.3
2023-01-29T08:27:01.196Z,30.7
2023-01-29T08:32:01.903Z,31.2
2023-01-29T08:37:01.190Z,31.2
2023-01-29T08:42:01.219Z,31.3
2023-01-29T08:47:01.177Z,32.2
2023-01-29T08:52:04.011Z,32.4
2023-01-29T08:57:01.243Z,31.4
2023-01-29T09:02:01.163Z,31.4
2023-01-29T09:07:01.163Z,31.3
2023-01-29T09:12:01.160Z,29.6
2023-01-29T09:17:01.568Z,29.8
2023-01-29T09:22:01.161Z,30.6
2023-01-29T09:27:01.553Z,31.7
2023-01-29T09:32:01.169Z,31.7
2023-01-29T09:37:01.699Z,33.2
2023-01-29T09:42:01.168Z,33.8
2023-01-29T09:47:01.151Z,34.3
2023-01-29T09:52:01.225Z,33.8
2023-01-29T09:57:01.168Z,35.1
2023-01-29T10:02:01.388Z,36.1
2023-01-29T10:07:01.308Z,35.6
2023-01-29T10:13:01.257Z,35.4
2023-01-29T10:18:01.323Z,35.0
2023-01-29T10:23:01.215Z,33.2
2023-01-29T10:28:07.202Z,32.0
2023-01-29T10:33:03.040Z,32.4
2023-01-29T10:38:01.222Z,32.4
2023-01-29T10:43:01.165Z,34.0
2023-01-29T10:48:08.625Z,35.0
2023-01-29T10:53:01.222Z,35.0
2023-01-29T10:58:03.221Z,34.6
2023-01-29T11:03:28.746Z,34.2
2023-01-29T11:08:01.166Z,33.2
2023-01-29T11:13:01.196Z,33.2
2023-01-29T11:18:07.240Z,32.8
2023-01-29T11:23:01.189Z,32.2
2023-01-29T11:28:01.166Z,32.1
2023-01-29T11:33:01.175Z,31.8
2023-01-29T11:43:01.166Z,29.6
2023-01-29T11:48:01.288Z,28.7
2023-01-29T11:53:02.609Z,28.8
2023-01-29T11:58:01.169Z,27.0
2023-01-29T12:03:01.170Z,28.5
2023-01-29T12:08:01.179Z,30.6
2023-01-29T12:13:01.158Z,31.2
2023-01-29T12:18:01.171Z,30.9
2023-01-29T12:23:01.169Z,33.4
2023-01-29T12:28:01.189Z,32.6
2023-01-29T12:33:01.171Z,31.3
2023-01-29T12:38:01.200Z,32.4
2023-01-29T12:43:01.149Z,33.5
2023-01-29T12:48:01.164Z,33.1
2023-01-29T12:53:01.174Z,32.4
2023-01-29T12:58:01.249Z,31.8
2023-01-29T13:03:01.255Z,30.6
2023-01-29T13:08:01.178Z,30.4
2023-01-29T13:13:01.164Z,30.1
2023-01-29T13:18:01.170Z,29.2
2023-01-29T13:23:01.176Z,31.0
2023-01-29T13:28:01.181Z,31.8
2023-01-29T13:33:01.231Z,32.0
2023-01-29T13:38:01.216Z,29.4
2023-01-29T13:43:01.164Z,30.9
2023-01-29T13:48:08.243Z,30.8
2023-01-29T13:53:01.188Z,30.0
2023-01-29T13:58:01.176Z,28.5
2023-01-29T14:03:01.324Z,30.3
2023-01-29T14:08:01.185Z,30.0
2023-01-29T14:13:01.171Z,29.1
2023-01-29T14:18:01.191Z,29.3
2023-01-29T14:23:01.578Z,29.2
2023-01-29T14:28:01.156Z,29.5
2023-01-29T14:33:01.293Z,30.0
2023-01-29T14:38:02.181Z,30.2
2023-01-29T14:43:01.224Z,29.0
2023-01-29T14:48:01.147Z,30.9
2023-01-29T14:53:01.250Z,31.5
2023-01-29T14:58:01.182Z,31.2
2023-01-29T15:03:02.648Z,31.6
2023-01-29T15:08:01.220Z,33.0
2023-01-29T15:13:01.161Z,32.1
2023-01-29T15:40:11.159Z,28.8
2023-01-29T15:45:02.058Z,31.3
2023-01-29T15:50:01.677Z,30.4
2023-01-29T15:55:01.228Z,31.4
2023-01-29T16:01:01.182Z,32.2
2023-01-29T16:06:01.170Z,33.0
2023-01-29T16:11:01.288Z,33.8
2023-01-29T16:16:01.428Z,34.8
2023-01-29T16:21:01.211Z,35.1
2023-01-29T16:26:01.214Z,33.7
2023-01-29T16:31:04.604Z,38.1
2023-01-29T16:36:01.176Z,39.6
2023-01-29T16:41:01.200Z,41.7
2023-01-29T16:46:01.162Z,42.3
2023-01-29T16:51:01.970Z,43.8
2023-01-29T16:56:01.251Z,38.7
2023-01-29T17:01:01.332Z,34.7
2023-01-29T17:06:01.232Z,31.7
2023-01-29T17:11:01.166Z,30.0
2023-01-29T17:16:01.434Z,25.6
2023-01-29T17:21:01.639Z,26.1
2023-01-29T17:26:01.165Z,26.1
2023-01-29T17:31:07.469Z,25.4
2023-01-29T17:36:01.178Z,26.2
2023-01-29T17:41:01.167Z,28.8
2023-01-29T17:46:01.330Z,28.0
2023-01-29T17:52:01.212Z,28.6
2023-01-29T17:57:01.186Z,27.7
2023-01-29T18:02:01.364Z,26.4
2023-01-29T18:07:01.180Z,27.8
2023-01-29T18:12:01.199Z,28.4
2023-01-29T18:17:01.160Z,28.6
2023-01-29T18:22:01.219Z,30.9
2023-01-29T18:27:01.234Z,30.9
2023-01-29T18:32:01.319Z,30.3
2023-01-29T18:37:01.234Z,30.0
2023-01-29T18:42:01.173Z,28.5
2023-01-29T18:47:01.233Z,27.5
2023-01-29T19:02:01.321Z,28.3
2023-01-29T19:07:01.185Z,28.6
2023-01-29T19:12:01.212Z,28.8
2023-01-29T19:17:01.475Z,28.5
2023-01-29T19:22:01.211Z,27.6
2023-01-29T19:27:01.155Z,26.5
2023-01-29T19:32:01.160Z,27.2
2023-01-29T19:37:01.189Z,25.3
2023-01-29T19:42:01.193Z,26.1
2023-01-29T19:47:02.508Z,27.2
2023-01-29T19:52:01.242Z,26.3
2023-01-29T19:57:01.173Z,26.8
2023-01-29T20:02:01.257Z,28.2
2023-01-29T20:12:01.182Z,26.0
2023-01-29T20:17:01.165Z,26.4
2023-01-29T20:22:02.502Z,24.9
2023-01-29T20:32:01.170Z,23.8
2023-01-29T20:37:01.174Z,21.8
2023-01-29T20:42:01.182Z,22.4
2023-01-29T20:47:02.140Z,23.1
2023-01-29T20:52:01.233Z,23.1
2023-01-29T20:57:01.342Z,22.3
2023-01-29T21:02:01.272Z,26.0
2023-01-29T21:07:01.220Z,25.6
2023-01-29T21:12:01.237Z,25.7
2023-01-29T21:17:01.224Z,26.2
2023-01-29T21:22:01.167Z,27.8
2023-01-29T21:27:01.202Z,26.3
2023-01-29T21:32:01.366Z,27.6
2023-01-29T21:37:01.171Z,28.0
2023-01-29T21:42:01.178Z,29.0
2023-01-29T21:47:01.224Z,28.3
2023-01-29T21:52:01.215Z,28.7
2023-01-29T21:57:01.242Z,27.0
2023-01-29T22:02:01.491Z,26.1
2023-01-29T22:07:01.337Z,25.4
2023-01-29T22:12:01.166Z,25.4
2023-01-29T22:17:01.274Z,25.4
2023-01-29T22:22:01.180Z,26.2
2023-01-29T22:27:01.168Z,27.0
2023-01-29T22:32:01.328Z,26.6
2023-01-29T22:42:01.215Z,27.4
2023-01-29T22:47:01.232Z,27.3
2023-01-29T22:52:01.354Z,27.4
2023-01-29T22:57:01.172Z,28.5
2023-01-29T23:02:01.418Z,28.9
2023-01-29T23:07:01.359Z,29.3
2023-01-29T23:17:01.170Z,26.8
2023-01-29T23:22:01.223Z,25.6
2023-01-29T23:27:01.178Z,25.4
2023-01-29T23:33:01.172Z,24.4
2023-01-29T23:38:01.870Z,24.6
2023-01-29T23:43:01.226Z,25.0
2023-01-29T23:48:01.157Z,24.7
2023-01-29T23:53:01.169Z,23.9
2023-01-29T23:58:01.223Z,21.2
